createdAt,value
2019-05-03T00:00:22.679Z,85.56
2019-05-03T00:01:22.677Z,85.87
2019-05-03T00:02:22.629Z,86.38
2019-05-03T00:03:22.599Z,85.15
2019-05-03T00:04:22.598Z,86.28
2019-05-03T00:05:22.591Z,85.42
2019-05-03T00:06:22.699Z,85.42
2019-05-03T00:07:22.569Z,84.33
2019-05-03T00:08:22.550Z,85.05
2019-05-03T00:09:22.600Z,85.97
2019-05-03T00:10:22.548Z,86.38
2019-05-03T00:11:22.566Z,86.79
2019-05-03T00:12:22.550Z,86.48
2019-05-03T00:13:22.530Z,84.74
2019-05-03T00:14:22.488Z,86.38
2019-05-03T00:15:22.505Z,86.48
2019-05-03T00:16:22.468Z,85.97
2019-05-03T00:17:22.478Z,86.58
2019-05-03T00:18:22.478Z,85.77
2019-05-03T00:19:22.472Z,87.41
2019-05-03T00:20:22.419Z,87.30
2019-05-03T00:21:22.417Z,86.38
2019-05-03T00:22:22.429Z,86.83
2019-05-03T00:23:22.919Z,87.24
2019-05-03T00:24:22.684Z,87.55
2019-05-03T00:25:22.371Z,87.34
2019-05-03T00:26:22.653Z,87.04
2019-05-03T00:27:22.398Z,86.42
2019-05-03T00:28:22.337Z,86.42
2019-05-03T00:29:22.351Z,87.85
2019-05-03T00:30:22.605Z,86.73
2019-05-03T00:31:22.687Z,87.24
2019-05-03T00:32:22.316Z,87.76
2019-05-03T00:33:22.620Z,86.22
2019-05-03T00:34:22.276Z,87.08
2019-05-03T00:35:22.615Z,87.59
2019-05-03T00:36:22.529Z,88.51
2019-05-03T00:37:22.238Z,88.41
2019-05-03T00:38:22.217Z,88.06
2019-05-03T00:39:22.230Z,88.27
2019-05-03T00:40:22.211Z,88.06
2019-05-03T00:41:22.188Z,87.65
2019-05-03T00:42:22.485Z,87.34
2019-05-03T00:43:22.327Z,87.65
2019-05-03T00:44:22.273Z,87.65
2019-05-03T00:45:22.186Z,87.45
2019-05-03T00:46:22.178Z,87.34
2019-05-03T00:47:22.297Z,87.24
2019-05-03T00:48:22.119Z,87.65
2019-05-03T00:49:22.624Z,87.96
2019-05-03T00:50:22.583Z,88.06
2019-05-03T00:51:22.548Z,87.96
2019-05-03T00:52:22.464Z,87.45
2019-05-03T00:53:22.488Z,87.34
2019-05-03T00:54:22.331Z,87.96
2019-05-03T00:55:22.200Z,88.06
2019-05-03T00:56:22.028Z,88.68
2019-05-03T00:57:22.708Z,88.78
2019-05-03T00:58:22.461Z,87.76
2019-05-03T00:59:22.229Z,88.47
2019-05-03T01:00:21.995Z,88.17
2019-05-03T01:01:22.520Z,87.34
2019-05-03T01:02:22.428Z,87.55
2019-05-03T01:03:22.101Z,87.76
2019-05-03T01:04:22.340Z,88.17
2019-05-03T01:05:22.711Z,88.17
2019-05-03T01:06:22.353Z,88.06
2019-05-03T01:07:22.348Z,87.76
2019-05-03T01:08:22.123Z,88.88
2019-05-03T01:09:22.545Z,88.88
2019-05-03T01:10:22.563Z,88.88
2019-05-03T01:11:22.342Z,87.96
2019-05-03T01:12:22.063Z,88.98
2019-05-03T01:13:22.038Z,89.29
2019-05-03T01:14:22.534Z,88.57
2019-05-03T01:15:21.829Z,88.57
2019-05-03T01:16:22.690Z,88.17
2019-05-03T01:17:22.453Z,87.85
2019-05-03T01:18:21.919Z,87.96
2019-05-03T01:19:22.715Z,88.47
2019-05-03T01:20:22.520Z,88.17
2019-05-03T01:21:22.487Z,88.37
2019-05-03T01:22:22.632Z,88.98
2019-05-03T01:23:22.021Z,89.09
2019-05-03T01:24:21.852Z,89.39
2019-05-03T01:25:31.551Z,88.47
2019-05-03T01:26:22.937Z,88.06
2019-05-03T01:27:22.096Z,87.96
2019-05-03T01:28:21.690Z,88.57
2019-05-03T01:29:22.775Z,89.19
2019-05-03T01:30:22.604Z,88.27
2019-05-03T01:31:22.756Z,88.27
2019-05-03T01:32:22.258Z,88.57
2019-05-03T01:33:22.640Z,88.47
2019-05-03T01:34:22.019Z,88.78
2019-05-03T01:35:21.931Z,88.68
2019-05-03T01:36:22.758Z,88.88
2019-05-03T01:37:22.658Z,88.17
2019-05-03T01:38:22.694Z,88.37
2019-05-03T01:39:22.237Z,88.57
2019-05-03T01:40:21.992Z,88.98
2019-05-03T01:41:21.731Z,88.47
2019-05-03T01:42:22.624Z,88.88
2019-05-03T01:43:22.242Z,87.96
2019-05-03T01:44:21.977Z,88.37
2019-05-03T01:45:22.767Z,89.29
2019-05-03T01:46:22.755Z,88.17
2019-05-03T01:47:21.952Z,88.72
2019-05-03T01:48:21.736Z,88.82
2019-05-03T01:49:22.858Z,89.84
2019-05-03T01:50:22.854Z,90.16
2019-05-03T01:51:21.976Z,90.46
2019-05-03T01:52:21.907Z,89.84
2019-05-03T01:53:21.675Z,89.43
2019-05-03T01:54:22.887Z,89.33
2019-05-03T01:55:22.643Z,89.75
2019-05-03T01:56:22.292Z,90.16
2019-05-03T01:57:22.078Z,90.16
2019-05-03T01:58:21.682Z,89.23
2019-05-03T01:59:22.673Z,89.64
2019-05-03T02:00:22.469Z,89.60
2019-05-03T02:01:22.110Z,89.60
2019-05-03T02:02:22.980Z,90.01
2019-05-03T02:03:21.809Z,90.01
2019-05-03T02:04:21.595Z,89.29
2019-05-03T02:05:22.520Z,89.29
2019-05-03T02:06:22.378Z,89.60
2019-05-03T02:07:22.345Z,90.01
2019-05-03T02:08:21.989Z,89.39
2019-05-03T02:09:21.640Z,89.70
2019-05-03T02:10:22.659Z,89.50
2019-05-03T02:11:22.239Z,89.64
2019-05-03T02:12:22.198Z,90.16
2019-05-03T02:13:22.874Z,89.95
2019-05-03T02:14:22.170Z,90.26
2019-05-03T02:15:22.162Z,89.75
2019-05-03T02:16:21.851Z,89.75
2019-05-03T02:17:22.629Z,90.46
2019-05-03T02:18:22.305Z,90.36
2019-05-03T02:19:22.010Z,90.26
2019-05-03T02:20:21.886Z,89.84
2019-05-03T02:21:21.628Z,90.05
2019-05-03T02:22:22.584Z,90.26
2019-05-03T02:23:22.425Z,89.75
2019-05-03T02:24:22.119Z,90.26
2019-05-03T02:25:21.740Z,90.26
2019-05-03T02:26:22.427Z,90.16
2019-05-03T02:27:21.967Z,90.36
2019-05-03T02:28:22.081Z,90.56
2019-05-03T02:29:21.928Z,90.97
2019-05-03T02:30:21.002Z,91.14
2019-05-03T02:31:23.095Z,90.73
2019-05-03T02:32:23.204Z,90.42
2019-05-03T02:33:23.198Z,90.42
2019-05-03T02:34:23.669Z,91.14
2019-05-03T02:35:22.725Z,91.14
2019-05-03T02:36:23.247Z,90.73
2019-05-03T02:37:22.475Z,90.52
2019-05-03T02:38:23.101Z,90.73
2019-05-03T02:39:22.814Z,90.32
2019-05-03T02:40:24.426Z,90.32
2019-05-03T02:41:22.748Z,90.01
2019-05-03T02:42:20.906Z,89.90
2019-05-03T02:43:20.865Z,90.73
2019-05-03T02:44:20.853Z,90.73
2019-05-03T02:45:20.834Z,90.42
2019-05-03T02:46:20.825Z,90.46
2019-05-03T02:47:20.845Z,90.77
2019-05-03T02:48:20.828Z,91.14
2019-05-03T02:49:20.791Z,90.83
2019-05-03T02:50:20.774Z,90.05
2019-05-03T02:51:20.775Z,90.77
2019-05-03T02:52:20.775Z,90.87
2019-05-03T02:53:20.762Z,90.77
2019-05-03T02:54:20.734Z,91.28
2019-05-03T02:55:20.732Z,91.38
2019-05-03T02:56:22.437Z,90.83
2019-05-03T02:57:20.751Z,90.73
2019-05-03T02:58:20.693Z,90.93
2019-05-03T02:59:20.683Z,90.73
2019-05-03T03:00:20.683Z,90.52
2019-05-03T03:01:20.688Z,90.83
2019-05-03T03:02:20.698Z,90.73
2019-05-03T03:03:20.645Z,91.18
2019-05-03T03:04:20.637Z,91.35
2019-05-03T03:05:20.625Z,91.24
2019-05-03T03:06:20.604Z,91.65
2019-05-03T03:07:20.643Z,90.93
2019-05-03T03:08:20.595Z,90.73
2019-05-03T03:09:20.572Z,90.32
2019-05-03T03:10:20.564Z,90.83
2019-05-03T03:11:20.564Z,90.52
2019-05-03T03:12:20.583Z,90.73
2019-05-03T03:13:20.579Z,90.73
2019-05-03T03:14:20.525Z,90.93
2019-05-03T03:15:20.504Z,90.73
2019-05-03T03:16:20.918Z,90.62
2019-05-03T03:17:20.493Z,90.73
2019-05-03T03:18:20.543Z,90.52
2019-05-03T03:19:20.465Z,90.73
2019-05-03T03:20:20.465Z,90.62
2019-05-03T03:21:20.451Z,90.52
2019-05-03T03:22:20.434Z,90.32
2019-05-03T03:23:20.476Z,89.90
2019-05-03T03:24:20.412Z,90.11
2019-05-03T03:25:20.400Z,90.52
2019-05-03T03:26:33.317Z,90.62
2019-05-03T03:27:21.395Z,90.22
2019-05-03T03:28:20.407Z,89.81
2019-05-03T03:29:20.371Z,90.83
2019-05-03T03:30:20.347Z,90.93
2019-05-03T03:31:20.335Z,90.73
2019-05-03T03:32:20.328Z,90.52
2019-05-03T03:33:20.353Z,90.62
2019-05-03T03:34:20.379Z,90.42
2019-05-03T03:35:22.185Z,89.81
2019-05-03T03:36:49.768Z,89.50
2019-05-03T03:37:21.276Z,90.11
2019-05-03T03:38:20.252Z,90.22
2019-05-03T03:39:20.292Z,90.52
2019-05-03T03:40:20.760Z,90.22
2019-05-03T03:41:20.752Z,89.90
2019-05-03T03:42:20.698Z,89.50
2019-05-03T03:43:20.456Z,89.70
2019-05-03T03:44:20.917Z,89.81
2019-05-03T03:45:20.709Z,89.43
2019-05-03T03:46:20.746Z,90.05
2019-05-03T03:47:20.164Z,90.22
2019-05-03T03:48:20.152Z,90.42
2019-05-03T03:49:20.143Z,90.11
2019-05-03T03:50:20.181Z,89.90
2019-05-03T03:51:20.122Z,89.39
2019-05-03T03:52:20.104Z,89.39
2019-05-03T03:53:20.130Z,89.50
2019-05-03T03:54:20.092Z,89.81
2019-05-03T03:55:20.111Z,89.90
2019-05-03T03:56:20.074Z,90.42
2019-05-03T03:57:20.051Z,89.60
2019-05-03T03:58:22.797Z,89.50
2019-05-03T03:59:20.031Z,89.81
2019-05-03T04:00:20.050Z,89.81
2019-05-03T04:01:20.001Z,89.81
2019-05-03T04:02:19.991Z,90.01
2019-05-03T04:03:20.002Z,90.22
2019-05-03T04:04:19.986Z,89.81
2019-05-03T04:05:19.993Z,90.26
2019-05-03T04:06:19.981Z,90.67
2019-05-03T04:07:19.949Z,90.36
2019-05-03T04:08:19.932Z,90.36
2019-05-03T04:09:19.923Z,90.67
2019-05-03T04:10:19.986Z,90.26
2019-05-03T04:11:19.891Z,91.38
2019-05-03T04:12:19.905Z,91.49
2019-05-03T04:13:19.883Z,91.49
2019-05-03T04:14:19.881Z,91.08
2019-05-03T04:15:19.898Z,91.38
2019-05-03T04:16:21.132Z,91.69
2019-05-03T04:17:19.840Z,91.69
2019-05-03T04:18:19.853Z,91.80
2019-05-03T04:19:19.855Z,91.38
2019-05-03T04:20:19.858Z,91.18
2019-05-03T04:21:19.819Z,91.80
2019-05-03T04:22:19.780Z,91.49
2019-05-03T04:23:19.770Z,91.80
2019-05-03T04:24:19.760Z,91.69
2019-05-03T04:25:19.765Z,91.80
2019-05-03T04:26:19.769Z,91.38
2019-05-03T04:27:24.428Z,91.38
2019-05-03T04:28:20.712Z,91.28
2019-05-03T04:29:19.701Z,91.69
2019-05-03T04:30:19.697Z,91.59
2019-05-03T04:31:19.692Z,91.59
2019-05-03T04:32:19.751Z,91.38
2019-05-03T04:33:19.660Z,90.97
2019-05-03T04:34:19.691Z,91.28
2019-05-03T04:35:19.655Z,91.38
2019-05-03T04:36:19.670Z,90.87
2019-05-03T04:37:19.623Z,91.28
2019-05-03T04:38:19.657Z,91.59
2019-05-03T04:39:20.407Z,91.08
2019-05-03T04:40:19.620Z,90.97
2019-05-03T04:41:19.579Z,91.03
2019-05-03T04:42:19.559Z,91.14
2019-05-03T04:43:19.558Z,91.14
2019-05-03T04:44:19.544Z,90.52
2019-05-03T04:45:19.560Z,90.62
2019-05-03T04:46:19.511Z,91.24
2019-05-03T04:47:19.509Z,91.24
2019-05-03T04:48:19.530Z,91.24
2019-05-03T04:49:19.489Z,91.24
2019-05-03T04:50:19.487Z,91.24
2019-05-03T04:51:19.504Z,90.93
2019-05-03T04:52:19.449Z,90.93
2019-05-03T04:53:19.440Z,90.62
2019-05-03T04:54:19.459Z,90.62
2019-05-03T04:55:19.419Z,90.52
2019-05-03T04:56:19.411Z,90.42
2019-05-03T04:57:34.905Z,90.37
2019-05-03T04:58:20.417Z,89.97
2019-05-03T04:59:19.370Z,90.17
2019-05-03T05:00:19.359Z,90.17
2019-05-03T05:01:19.360Z,90.17
2019-05-03T05:02:19.468Z,90.58
2019-05-03T05:03:19.335Z,90.79
2019-05-03T05:04:19.320Z,91.09
2019-05-03T05:05:19.319Z,90.79
2019-05-03T05:06:20.476Z,90.89
2019-05-03T05:07:19.318Z,90.79
2019-05-03T05:08:19.301Z,90.99
2019-05-03T05:09:19.310Z,91.09
2019-05-03T05:10:19.319Z,90.79
2019-05-03T05:11:19.242Z,90.89
2019-05-03T05:12:19.273Z,91.09
2019-05-03T05:13:19.229Z,91.30
2019-05-03T05:14:19.220Z,91.20
2019-05-03T05:15:19.199Z,90.89
2019-05-03T05:16:19.219Z,90.79
2019-05-03T05:17:19.177Z,90.48
2019-05-03T05:18:19.170Z,90.37
2019-05-03T05:19:19.220Z,90.28
2019-05-03T05:20:19.157Z,90.07
2019-05-03T05:21:19.138Z,90.48
2019-05-03T05:22:19.138Z,90.58
2019-05-03T05:23:19.137Z,90.79
2019-05-03T05:24:19.098Z,90.58
2019-05-03T05:25:19.121Z,90.69
2019-05-03T05:26:19.081Z,90.69
2019-05-03T05:27:19.066Z,90.79
2019-05-03T05:28:19.107Z,90.69
2019-05-03T05:29:19.049Z,90.79
2019-05-03T05:30:19.038Z,90.28
2019-05-03T05:31:19.033Z,90.17
2019-05-03T05:32:19.008Z,89.76
2019-05-03T05:33:19.038Z,89.76
2019-05-03T05:34:18.988Z,90.17
2019-05-03T05:35:18.977Z,90.17
2019-05-03T05:36:18.968Z,90.07
2019-05-03T05:37:19.486Z,90.48
2019-05-03T05:38:18.989Z,90.07
2019-05-03T05:39:19.045Z,89.45
2019-05-03T05:40:18.930Z,89.97
2019-05-03T05:41:18.919Z,90.28
2019-05-03T05:42:18.898Z,89.97
2019-05-03T05:43:18.904Z,89.66
2019-05-03T05:44:18.921Z,89.66
2019-05-03T05:45:18.989Z,89.56
2019-05-03T05:46:18.886Z,89.66
2019-05-03T05:47:18.858Z,90.07
2019-05-03T05:48:18.838Z,89.97
2019-05-03T05:49:18.858Z,90.28
2019-05-03T05:50:18.819Z,89.97
2019-05-03T05:51:18.810Z,89.97
2019-05-03T05:52:18.845Z,89.66
2019-05-03T05:53:18.797Z,89.97
2019-05-03T05:54:18.819Z,89.83
2019-05-03T05:55:18.768Z,90.03
2019-05-03T05:56:18.761Z,89.72
2019-05-03T05:57:18.740Z,89.31
2019-05-03T05:58:18.734Z,89.31
2019-05-03T05:59:18.760Z,89.31
2019-05-03T06:00:18.712Z,89.42
2019-05-03T06:01:18.712Z,89.62
2019-05-03T06:02:18.700Z,89.62
2019-05-03T06:03:18.680Z,89.66
2019-05-03T06:04:18.702Z,90.17
2019-05-03T06:05:18.661Z,90.34
2019-05-03T06:06:18.771Z,90.23
2019-05-03T06:07:18.677Z,90.23
2019-05-03T06:08:18.662Z,89.72
2019-05-03T06:09:18.636Z,89.72
2019-05-03T06:10:18.612Z,89.62
2019-05-03T06:11:18.666Z,89.72
2019-05-03T06:12:18.588Z,89.83
2019-05-03T06:13:18.583Z,90.13
2019-05-03T06:14:18.558Z,90.03
2019-05-03T06:15:18.558Z,90.34
2019-05-03T06:16:18.575Z,90.13
2019-05-03T06:17:18.526Z,89.92
2019-05-03T06:18:18.563Z,89.92
2019-05-03T06:19:18.517Z,89.92
2019-05-03T06:20:18.487Z,90.23
2019-05-03T06:21:18.510Z,90.34
2019-05-03T06:22:18.498Z,90.44
2019-05-03T06:23:18.457Z,90.64
2019-05-03T06:24:18.476Z,90.03
2019-05-03T06:25:18.451Z,89.72
2019-05-03T06:26:18.426Z,90.03
2019-05-03T06:27:18.417Z,90.54
2019-05-03T06:28:21.005Z,90.54
2019-05-03T06:29:18.437Z,90.54
2019-05-03T06:30:18.386Z,90.44
2019-05-03T06:31:21.151Z,89.92
2019-05-03T06:32:18.357Z,89.92
2019-05-03T06:33:18.357Z,90.64
2019-05-03T06:34:18.367Z,90.84
2019-05-03T06:35:18.336Z,90.84
2019-05-03T06:36:18.335Z,90.95
2019-05-03T06:37:18.309Z,91.26
2019-05-03T06:38:18.325Z,91.16
2019-05-03T06:39:18.286Z,91.05
2019-05-03T06:40:18.266Z,90.84
2019-05-03T06:41:18.268Z,90.64
2019-05-03T06:42:19.396Z,90.95
2019-05-03T06:43:18.276Z,90.75
2019-05-03T06:44:19.230Z,90.23
2019-05-03T06:45:19.220Z,90.23
2019-05-03T06:46:18.384Z,90.03
2019-05-03T06:47:18.189Z,90.44
2019-05-03T06:48:22.395Z,90.23
2019-05-03T06:49:19.169Z,90.13
2019-05-03T06:50:19.583Z,90.34
2019-05-03T06:51:20.166Z,90.13
2019-05-03T06:52:19.578Z,90.03
2019-05-03T06:53:19.125Z,89.51
2019-05-03T06:54:20.487Z,89.31
2019-05-03T06:55:19.109Z,89.42
2019-05-03T06:56:19.373Z,89.72
2019-05-03T06:57:19.137Z,90.03
2019-05-03T06:58:30.311Z,90.23
2019-05-03T06:59:19.063Z,90.54
2019-05-03T07:00:18.067Z,90.44
2019-05-03T07:01:18.036Z,90.34
2019-05-03T07:02:18.027Z,90.54
2019-05-03T07:03:18.065Z,90.19
2019-05-03T07:04:18.048Z,90.09
2019-05-03T07:05:18.032Z,90.39
2019-05-03T07:06:18.010Z,90.60
2019-05-03T07:07:18.015Z,90.60
2019-05-03T07:08:17.966Z,90.81
2019-05-03T07:09:17.956Z,90.50
2019-05-03T07:10:17.945Z,90.81
2019-05-03T07:11:17.937Z,91.52
2019-05-03T07:12:17.997Z,91.73
2019-05-03T07:13:17.918Z,91.42
2019-05-03T07:14:17.896Z,90.81
2019-05-03T07:15:17.896Z,91.46
2019-05-03T07:16:17.927Z,91.67
2019-05-03T07:17:17.865Z,91.73
2019-05-03T07:18:17.855Z,91.46
2019-05-03T07:19:17.856Z,91.77
2019-05-03T07:20:17.839Z,91.56
2019-05-03T07:21:17.856Z,91.87
2019-05-03T07:22:17.826Z,92.08
2019-05-03T07:23:17.825Z,91.83
2019-05-03T07:24:17.833Z,91.42
2019-05-03T07:25:17.838Z,91.31
2019-05-03T07:26:17.825Z,91.52
2019-05-03T07:27:17.755Z,90.81
2019-05-03T07:28:17.755Z,90.60
2019-05-03T07:29:17.751Z,91.01
2019-05-03T07:30:17.727Z,91.31
2019-05-03T07:31:17.775Z,90.70
2019-05-03T07:32:17.724Z,90.91
2019-05-03T07:33:17.741Z,90.81
2019-05-03T07:34:17.683Z,91.42
2019-05-03T07:35:17.674Z,91.42
2019-05-03T07:36:17.716Z,91.73
2019-05-03T07:37:17.660Z,92.03
2019-05-03T07:38:17.647Z,91.83
2019-05-03T07:39:17.641Z,92.03
2019-05-03T07:40:17.615Z,92.03
2019-05-03T07:41:17.643Z,91.93
2019-05-03T07:42:17.595Z,91.73
2019-05-03T07:43:18.963Z,91.83
2019-05-03T07:44:17.594Z,91.83
2019-05-03T07:45:17.565Z,91.73
2019-05-03T07:46:17.595Z,91.63
2019-05-03T07:47:17.535Z,91.52
2019-05-03T07:48:17.538Z,91.31
2019-05-03T07:49:17.535Z,91.31
2019-05-03T07:50:17.514Z,91.42
2019-05-03T07:51:17.761Z,91.58
2019-05-03T07:52:17.518Z,91.27
2019-05-03T07:53:17.507Z,90.86
2019-05-03T07:54:17.476Z,90.97
2019-05-03T07:55:17.457Z,91.27
2019-05-03T07:56:17.478Z,91.58
2019-05-03T07:57:18.257Z,91.58
2019-05-03T07:58:17.488Z,90.56
2019-05-03T07:59:17.406Z,91.27
2019-05-03T08:00:17.404Z,90.97
2019-05-03T08:01:17.394Z,90.05
2019-05-03T08:02:17.388Z,89.94
2019-05-03T08:03:17.422Z,90.15
2019-05-03T08:04:17.364Z,88.82
2019-05-03T08:05:17.342Z,89.84
2019-05-03T08:06:17.335Z,89.94
2019-05-03T08:07:22.423Z,90.56
2019-05-03T08:08:18.345Z,90.86
2019-05-03T08:09:17.355Z,90.72
2019-05-03T08:10:17.304Z,89.90
2019-05-03T08:11:17.275Z,89.90
2019-05-03T08:12:17.286Z,89.59
2019-05-03T08:13:17.254Z,89.39
2019-05-03T08:14:18.280Z,88.47
2019-05-03T08:15:17.234Z,88.68
2019-05-03T08:16:17.254Z,89.25
2019-05-03T08:17:17.257Z,89.35
2019-05-03T08:18:17.234Z,88.74
2019-05-03T08:19:17.235Z,88.43
2019-05-03T08:20:17.193Z,87.61
2019-05-03T08:21:17.166Z,88.12
2019-05-03T08:22:17.193Z,88.08
2019-05-03T08:23:26.253Z,87.26
2019-05-03T08:24:18.197Z,86.55
2019-05-03T08:25:17.134Z,86.55
2019-05-03T08:26:17.114Z,86.04
2019-05-03T08:27:17.110Z,85.59
2019-05-03T08:28:17.087Z,85.28
2019-05-03T08:29:19.380Z,83.78
2019-05-03T08:30:17.105Z,83.67
2019-05-03T08:31:17.068Z,83.78
2019-05-03T08:32:17.084Z,84.08
2019-05-03T08:33:17.035Z,83.57
2019-05-03T08:34:17.063Z,84.08
2019-05-03T08:35:17.047Z,83.87
2019-05-03T08:36:17.005Z,83.47
2019-05-03T08:37:17.002Z,83.57
2019-05-03T08:38:16.982Z,82.65
2019-05-03T08:39:16.973Z,82.75
2019-05-03T08:40:16.991Z,82.55
2019-05-03T08:41:16.945Z,82.75
2019-05-03T08:42:16.940Z,82.04
2019-05-03T08:43:16.965Z,82.04
2019-05-03T08:44:16.914Z,82.24
2019-05-03T08:45:16.905Z,82.65
2019-05-03T08:46:16.916Z,82.21
2019-05-03T08:47:16.889Z,81.39
2019-05-03T08:48:16.927Z,81.49
2019-05-03T08:49:16.878Z,80.88
2019-05-03T08:50:21.472Z,80.98
2019-05-03T08:51:16.860Z,80.54
2019-05-03T08:52:16.835Z,79.75
2019-05-03T08:53:16.841Z,79.00
2019-05-03T08:54:16.847Z,78.73
2019-05-03T08:55:16.825Z,76.96
2019-05-03T08:56:16.819Z,76.07
2019-05-03T08:57:16.771Z,75.98
2019-05-03T08:58:16.787Z,76.11
2019-05-03T08:59:29.117Z,76.31
2019-05-03T09:00:17.748Z,76.31
2019-05-03T09:01:16.766Z,77.61
2019-05-03T09:02:17.965Z,78.02
2019-05-03T09:03:16.713Z,78.05
2019-05-03T09:04:16.703Z,78.97
2019-05-03T09:05:18.589Z,79.48
2019-05-03T09:06:16.684Z,79.00
2019-05-03T09:07:16.696Z,78.91
2019-05-03T09:08:16.655Z,79.32
2019-05-03T09:09:16.650Z,79.72
2019-05-03T09:10:17.045Z,78.50
2019-05-03T09:11:16.626Z,78.60
2019-05-03T09:12:16.646Z,79.41
2019-05-03T09:13:16.595Z,78.30
2019-05-03T09:14:16.585Z,78.30
2019-05-03T09:15:16.617Z,77.89
2019-05-03T09:16:16.677Z,78.33
2019-05-03T09:17:16.554Z,78.98
2019-05-03T09:18:17.583Z,79.69
2019-05-03T09:19:16.535Z,80.04
2019-05-03T09:20:16.516Z,80.96
2019-05-03T09:21:16.518Z,81.87
2019-05-03T09:22:16.504Z,82.18
2019-05-03T09:23:16.535Z,83.04
2019-05-03T09:24:16.576Z,83.75
2019-05-03T09:25:16.478Z,83.85
2019-05-03T09:26:16.455Z,84.06
2019-05-03T09:27:16.448Z,84.16
2019-05-03T09:28:16.435Z,85.08
2019-05-03T09:29:16.539Z,85.69
2019-05-03T09:30:16.456Z,86.10
2019-05-03T09:31:16.405Z,86.41
2019-05-03T09:32:16.396Z,86.61
2019-05-03T09:33:16.399Z,85.89
2019-05-03T09:34:16.372Z,84.81
2019-05-03T09:35:29.554Z,84.41
2019-05-03T09:36:17.385Z,85.12
2019-05-03T09:37:16.353Z,85.32
2019-05-03T09:38:16.333Z,84.81
2019-05-03T09:39:16.325Z,84.41
2019-05-03T09:40:16.336Z,84.20
2019-05-03T09:41:16.286Z,84.91
2019-05-03T09:42:16.285Z,84.50
2019-05-03T09:43:16.277Z,84.34
2019-05-03T09:44:16.256Z,85.97
2019-05-03T09:45:16.283Z,86.53
2019-05-03T09:46:16.288Z,87.24
2019-05-03T09:47:16.246Z,86.94
2019-05-03T09:48:16.216Z,86.90
2019-05-03T09:49:16.659Z,86.83
2019-05-03T09:50:16.235Z,86.49
2019-05-03T09:51:16.187Z,85.47
2019-05-03T09:52:16.319Z,85.26
2019-05-03T09:53:16.166Z,85.16
2019-05-03T09:54:16.147Z,86.18
2019-05-03T09:55:16.180Z,86.18
2019-05-03T09:56:16.135Z,86.79
2019-05-03T09:57:16.126Z,87.20
2019-05-03T09:58:16.117Z,87.51
2019-05-03T09:59:16.143Z,87.20
2019-05-03T10:00:16.244Z,87.51
2019-05-03T10:01:16.082Z,86.29
2019-05-03T10:02:16.065Z,86.90
2019-05-03T10:03:16.055Z,87.41
2019-05-03T10:04:17.989Z,86.18
2019-05-03T10:05:16.035Z,85.67
2019-05-03T10:06:17.669Z,85.57
2019-05-03T10:07:16.014Z,85.63
2019-05-03T10:08:15.998Z,86.14
2019-05-03T10:09:16.001Z,85.63
2019-05-03T10:10:16.025Z,85.47
2019-05-03T10:11:15.995Z,84.65
2019-05-03T10:12:16.343Z,83.83
2019-05-03T10:13:23.177Z,85.06
2019-05-03T10:14:16.936Z,85.97
2019-05-03T10:15:15.930Z,85.88
2019-05-03T10:16:16.050Z,86.49
2019-05-03T10:17:16.045Z,85.32
2019-05-03T10:18:15.936Z,85.53
2019-05-03T10:19:16.270Z,85.94
2019-05-03T10:20:15.875Z,85.02
2019-05-03T10:21:15.858Z,84.81
2019-05-03T10:22:15.845Z,84.81
2019-05-03T10:23:15.887Z,84.20
2019-05-03T10:24:15.919Z,83.89
2019-05-03T10:25:15.819Z,84.00
2019-05-03T10:26:15.800Z,84.71
2019-05-03T10:27:15.805Z,84.71
2019-05-03T10:28:15.813Z,84.91
2019-05-03T10:29:15.793Z,84.61
2019-05-03T10:30:17.150Z,84.50
2019-05-03T10:31:15.785Z,83.44
2019-05-03T10:32:16.147Z,83.44
2019-05-03T10:33:15.760Z,82.63
2019-05-03T10:34:15.731Z,82.63
2019-05-03T10:35:15.711Z,83.24
2019-05-03T10:36:15.729Z,82.93
2019-05-03T10:37:15.683Z,81.77
2019-05-03T10:38:15.677Z,81.67
2019-05-03T10:39:15.695Z,81.26
2019-05-03T10:40:15.705Z,81.67
2019-05-03T10:41:15.678Z,81.26
2019-05-03T10:42:15.633Z,80.65
2019-05-03T10:43:15.615Z,80.24
2019-05-03T10:44:15.656Z,80.75
2019-05-03T10:45:15.604Z,80.82
2019-05-03T10:46:15.891Z,80.20
2019-05-03T10:47:15.585Z,79.83
2019-05-03T10:48:15.741Z,78.95
2019-05-03T10:49:15.588Z,79.87
2019-05-03T10:50:15.710Z,80.28
2019-05-03T10:51:15.966Z,80.99
2019-05-03T10:52:15.520Z,81.20
2019-05-03T10:53:15.506Z,80.89
2019-05-03T10:54:15.525Z,80.07
2019-05-03T10:55:15.931Z,80.85
2019-05-03T10:56:22.848Z,80.65
2019-05-03T10:57:16.467Z,81.37
2019-05-03T10:58:16.105Z,81.77
2019-05-03T10:59:15.466Z,81.37
2019-05-03T11:00:41.651Z,80.71
2019-05-03T11:01:16.443Z,80.61
2019-05-03T11:02:15.406Z,80.51
2019-05-03T11:03:15.435Z,81.12
2019-05-03T11:04:15.431Z,79.39
2019-05-03T11:05:15.381Z,78.88
2019-05-03T11:06:15.365Z,78.67
2019-05-03T11:07:15.354Z,79.80
2019-05-03T11:08:15.394Z,79.90
2019-05-03T11:09:15.501Z,79.49
2019-05-03T11:10:15.328Z,79.08
2019-05-03T11:11:15.335Z,78.27
2019-05-03T11:12:15.334Z,78.16
2019-05-03T11:13:15.555Z,77.65
2019-05-03T11:14:15.327Z,78.47
2019-05-03T11:15:15.277Z,78.67
2019-05-03T11:16:15.257Z,78.57
2019-05-03T11:17:15.275Z,78.84
2019-05-03T11:18:15.228Z,78.84
2019-05-03T11:19:15.225Z,78.43
2019-05-03T11:20:28.031Z,78.60
2019-05-03T11:21:27.926Z,77.17
2019-05-03T11:22:16.187Z,77.58
2019-05-03T11:23:15.179Z,78.60
2019-05-03T11:24:15.178Z,79.21
2019-05-03T11:25:15.205Z,78.09
2019-05-03T11:26:15.150Z,77.27
2019-05-03T11:27:15.135Z,76.56
2019-05-03T11:28:15.134Z,77.03
2019-05-03T11:29:15.811Z,76.62
2019-05-03T11:30:15.766Z,77.34
2019-05-03T11:31:15.508Z,75.30
2019-05-03T11:32:15.095Z,75.20
2019-05-03T11:33:15.331Z,74.38
2019-05-03T11:34:15.151Z,74.45
2019-05-03T11:35:15.118Z,74.76
2019-05-03T11:36:15.098Z,74.65
2019-05-03T11:37:15.026Z,75.27
2019-05-03T11:38:15.128Z,74.93
2019-05-03T11:39:15.011Z,74.93
2019-05-03T11:40:15.678Z,74.72
2019-05-03T11:41:19.193Z,73.94
2019-05-03T11:42:18.451Z,73.84
2019-05-03T11:43:15.299Z,73.54
2019-05-03T11:44:15.411Z,74.55
2019-05-03T11:45:15.353Z,74.35
2019-05-03T11:46:14.957Z,75.02
2019-05-03T11:47:15.119Z,74.01
2019-05-03T11:48:14.934Z,72.21
2019-05-03T11:49:14.926Z,72.52
2019-05-03T11:50:15.034Z,72.69
2019-05-03T11:51:15.289Z,72.28
2019-05-03T11:52:15.866Z,72.69
2019-05-03T11:53:14.867Z,71.67
2019-05-03T11:54:15.734Z,72.21
2019-05-03T11:55:15.945Z,71.30
2019-05-03T11:56:14.976Z,71.60
2019-05-03T11:57:15.784Z,71.70
2019-05-03T11:58:14.975Z,71.91
2019-05-03T11:59:14.837Z,71.50
2019-05-03T12:00:14.824Z,73.33
2019-05-03T12:01:19.055Z,72.82
2019-05-03T12:02:15.788Z,72.21
2019-05-03T12:03:15.539Z,71.70
2019-05-03T12:04:15.377Z,73.47
2019-05-03T12:05:15.112Z,73.77
2019-05-03T12:06:15.647Z,74.49
2019-05-03T12:07:15.331Z,73.47
2019-05-03T12:08:14.808Z,73.47
2019-05-03T12:09:15.528Z,72.96
2019-05-03T12:10:29.657Z,72.99
2019-05-03T12:11:15.723Z,73.50
2019-05-03T12:12:15.195Z,73.30
2019-05-03T12:13:15.782Z,73.60
2019-05-03T12:14:15.424Z,73.91
2019-05-03T12:15:15.126Z,73.40
2019-05-03T12:16:21.436Z,74.05
2019-05-03T12:17:21.012Z,75.27
2019-05-03T12:18:16.703Z,76.70
2019-05-03T12:19:19.686Z,76.19
2019-05-03T12:20:17.821Z,76.50
2019-05-03T12:21:17.412Z,76.22
2019-05-03T12:22:16.652Z,77.45
2019-05-03T12:23:16.568Z,78.16
2019-05-03T12:24:15.946Z,78.91
2019-05-03T12:25:16.607Z,78.41
2019-05-03T12:26:17.175Z,79.97
2019-05-03T12:27:15.041Z,81.40
2019-05-03T12:28:15.325Z,82.42
2019-05-03T12:29:15.317Z,81.71
2019-05-03T12:30:15.350Z,81.60
2019-05-03T12:31:29.750Z,82.46
2019-05-03T12:32:15.418Z,81.95
2019-05-03T12:33:15.346Z,81.85
2019-05-03T12:34:15.951Z,82.05
2019-05-03T12:35:15.335Z,81.95
2019-05-03T12:36:15.447Z,82.46
2019-05-03T12:37:15.524Z,81.74
2019-05-03T12:38:16.539Z,82.15
2019-05-03T12:39:24.249Z,82.81
2019-05-03T12:40:15.337Z,83.32
2019-05-03T12:41:15.058Z,83.11
2019-05-03T12:42:14.878Z,83.07
2019-05-03T12:43:14.947Z,82.97
2019-05-03T12:44:15.287Z,82.56
2019-05-03T12:45:15.244Z,83.42
2019-05-03T12:46:16.706Z,82.87
2019-05-03T12:47:14.677Z,83.01
2019-05-03T12:48:15.515Z,83.42
2019-05-03T12:49:15.541Z,83.48
2019-05-03T12:50:15.634Z,83.42
2019-05-03T12:51:15.226Z,83.62
2019-05-03T12:52:16.456Z,84.24